Latest Weather Observations for Maria Island

IDT60901

Issued at 9:41 am EDT Wednesday 4 March 2015 (issued every 10 minutes, with the page automatically refreshed every 10 minutes)

About weather observations | Map of Hobart area stations | Latest observations for Hobart area | Other Formats
Station Details ID: 092124 Name: MARIA ISLAND (POINT LESUEUR) Lat: -42.66 Lon: 148.02 Height: 28.0 m
Data from the previous 72 hours. | See also: Recent months at Maria Island
Date/Time
EDT
Tmp

°C
App
Tmp
°C
Dew
Point
°C
Rel
Hum
%
Delta-T

°C
Wind Press
QNH
hPa
Press
MSL
hPa
Rain
since
9 am
mm
Dir
 
Spd
km/h
Gust
km/h
Spd
kts
Gust
kts
04/09:30am 16.3 9.9 9.3 63 3.6 N 33 39 18 21 1003.2 1003.1 0.0
04/09:00am 15.8 8.8 8.3 61 3.8 N 35 41 19 22 1003.9 1003.8 3.8
04/08:30am 14.9 8.5 8.6 66 3.2 N 32 37 17 20 1004.3 1004.2 3.8
04/08:00am 14.5 7.3 7.8 64 3.3 N 35 41 19 22 1003.7 1003.6 3.8
04/07:30am 13.8 5.9 7.8 67 3.0 N 39 43 21 23 1003.9 1003.8 3.8
04/07:00am 13.9 7.2 8.3 69 2.8 N 33 43 18 23 1004.2 1004.1 3.8
04/06:30am 13.6 7.9 8.2 70 2.7 NNE 28 35 15 19 1004.1 1004.0 3.8
04/06:00am 13.7 7.1 7.7 67 3.0 N 32 35 17 19 1004.4 1004.3 3.8
04/05:30am 13.8 8.1 6.9 63 3.3 NNW 26 33 14 18 1004.8 1004.7 3.8
04/05:00am 13.7 7.6 6.6 62 3.4 NNW 28 37 15 20 1004.9 1004.8 3.8
04/04:30am 13.3 6.4 7.1 66 3.0 N 33 41 18 22 1004.9 1004.8 3.8
04/04:00am 13.5 6.6 7.3 66 3.0 N 33 39 18 21 1005.2 1005.1 3.8
04/03:30am 13.3 6.3 5.9 61 3.5 N 32 37 17 20 1005.7 1005.6 3.8
04/03:00am 13.8 7.7 6.4 61 3.6 NNW 28 33 15 18 1006.0 1005.9 3.8
04/02:30am 13.9 7.2 5.8 58 3.8 NNW 30 33 16 18 1006.7 1006.6 3.8
04/02:00am 13.8 6.5 5.4 57 4.0 NW 33 39 18 21 1007.1 1007.0 3.8
04/01:30am 13.9 7.1 5.3 56 4.0 NW 30 35 16 19 1007.8 1007.7 3.8
04/01:00am 13.9 7.5 5.3 56 4.0 NW 28 33 15 18 1008.3 1008.2 3.8
04/12:30am 13.7 6.6 5.6 58 3.8 WNW 32 39 17 21 1008.7 1008.6 3.8
 
Date/Time
EDT
Tmp

°C
App
Tmp
°C
Dew
Point
°C
Rel
Hum
%
Delta-T

°C
Wind Press
QNH
hPa
Press
MSL
hPa
Rain
since
9 am
mm
Dir
 
Spd
km/h
Gust
km/h
Spd
kts
Gust
kts
03/11:30pm 14.1 6.9 4.9 54 4.3 W 32 41 17 22 1009.3 1009.2 3.8
03/11:00pm 14.8 6.1 5.9 55 4.3 W 41 50 22 27 1009.3 1009.2 3.8
03/10:58pm 14.8 6.7 6.9 59 3.9 W 39 46 21 25 1009.3 1009.2 3.8
03/10:30pm 15.2 11.4 11.0 76 2.2 W 22 28 12 15 1009.8 1009.7 3.8
03/10:00pm 15.7 13.7 12.8 83 1.6 NW 15 19 8 10 1009.7 1009.6 3.8
03/09:30pm 15.9 15.0 12.5 80 1.9 NNW 9 11 5 6 1009.9 1009.8 3.8
03/09:00pm 15.6 14.6 12.4 81 1.8 NNE 9 20 5 11 1010.1 1010.0 3.6
03/08:30pm 15.3 13.5 12.1 81 1.7 NNE 13 17 7 9 1010.0 1009.9 3.6
03/08:00pm 15.3 15.1 11.7 79 1.9 NW 4 9 2 5 1010.3 1010.2 3.2
03/07:30pm 16.0 16.1 11.4 74 2.5 NNE 2 4 1 2 1010.5 1010.4 0.4
03/07:00pm 15.9 14.1 10.9 72 2.7 NE 11 15 6 8 1010.6 1010.5 0.4
03/06:30pm 16.2 12.9 10.9 71 2.8 NNE 19 28 10 15 1010.7 1010.6 0.4
03/06:00pm 16.2 12.1 10.1 67 3.2 NNE 22 35 12 19 1010.6 1010.5 0.4
03/05:30pm 16.5 13.3 9.9 65 3.5 NE 17 20 9 11 1011.0 1010.9 0.4
03/05:00pm 17.1 13.2 9.5 61 4.0 NNE 20 28 11 15 1011.2 1011.1 0.4
03/04:30pm 17.8 13.3 9.9 60 4.2 N 24 32 13 17 1011.2 1011.1 0.4
03/04:00pm 17.5 14.3 9.9 61 4.0 ESE 17 24 9 13 1011.6 1011.5 0.4
03/03:30pm 18.0 16.3 9.9 59 4.3 NW 9 15 5 8 1011.7 1011.6 0.4
03/03:00pm 17.6 14.1 10.2 62 3.9 ESE 19 24 10 13 1012.2 1012.1 0.4
03/02:30pm 17.7 14.2 10.1 61 4.0 E 19 24 10 13 1012.6 1012.5 0.4
03/02:00pm 17.7 14.9 10.1 61 4.0 ESE 15 20 8 11 1012.9 1012.8 0.4
03/01:30pm 16.6 13.6 9.1 61 3.9 ESE 15 17 8 9 1013.1 1013.0 0.4
03/01:00pm 16.3 13.7 9.3 63 3.6 SSE 13 19 7 10 1013.5 1013.4 0.4
03/12:30pm 16.8 15.1 10.0 64 3.6 SSE 9 13 5 7 1013.9 1013.8 0.4
03/12:00pm 15.5 12.6 9.6 68 3.1 S 15 19 8 10 1014.2 1014.1 0.4
03/11:30am 15.4 14.7 8.4 63 3.5 N 2 4 1 2 1014.4 1014.3 0.4
03/11:00am 15.9 14.9 10.2 69 3.0 NNE 6 7 3 4 1014.5 1014.4 0.4
03/10:30am 15.5 14.8 11.3 76 2.3 E 6 9 3 5 1014.5 1014.4 0.4
03/10:00am 14.0 13.8 11.7 86 1.2 S 4 6 2 3 1014.6 1014.5 0.4
03/09:30am 12.4 12.7 11.0 91 0.7 CALM 0 0 0 0 1014.5 1014.4 0.4
03/09:00am 12.4 11.3 10.8 90 0.8 S 7 9 4 5 1014.6 1014.5 1.0
03/08:30am 13.7 10.6 10.3 80 1.8 S 17 20 9 11 1014.1 1014.0 0.0
03/08:00am 13.9 12.6 9.9 77 2.1 SSW 7 9 4 5 1014.0 1013.9 0.0
03/07:30am 13.6 11.5 8.4 71 2.6 SSE 9 13 5 7 1013.5 1013.4 0.0
03/07:00am 12.6 10.8 7.9 73 2.3 W 7 9 4 5 1013.0 1012.9 0.0
03/06:30am 12.1 9.2 8.2 77 1.9 WNW 13 15 7 8 1012.3 1012.2 0.0
03/06:00am 13.1 9.7 9.0 76 2.1 NW 17 20 9 11 1011.7 1011.6 0.0
03/05:30am 12.6 8.9 9.4 81 1.6 NW 19 22 10 12 1011.5 1011.4 0.0
03/05:00am 13.5 9.5 9.0 74 2.3 NNW 20 22 11 12 1011.3 1011.2 0.0
03/04:30am 13.6 9.6 8.4 71 2.6 NNW 19 22 10 12 1011.4 1011.3 0.0
03/04:00am 13.9 9.3 8.1 68 2.9 NNW 22 26 12 14 1011.3 1011.2 0.0
03/03:30am 14.1 8.7 8.1 67 3.0 N 26 32 14 17 1011.2 1011.1 0.0
03/03:00am 14.1 8.7 8.1 67 3.0 N 26 30 14 16 1011.3 1011.2 0.0
03/02:30am 14.3 9.9 7.4 63 3.4 N 20 24 11 13 1011.6 1011.5 0.0
03/02:00am 14.6 10.3 6.9 60 3.8 NNW 19 30 10 16 1012.0 1011.9 0.0
03/01:30am 14.5 9.9 6.3 58 3.9 NW 20 26 11 14 1012.2 1012.1 0.0
03/01:00am 14.4 9.6 7.5 63 3.4 NW 22 26 12 14 1012.7 1012.6 0.0
03/12:30am 14.6 10.7 9.4 71 2.7 NNW 20 28 11 15 1012.7 1012.6 0.0
03/12:00am 15.1 10.1 8.1 63 3.5 NW 24 28 13 15 1012.6 1012.5 0.0
 
Date/Time
EDT
Tmp

°C
App
Tmp
°C
Dew
Point
°C
Rel
Hum
%
Delta-T

°C
Wind Press
QNH
hPa
Press
MSL
hPa
Rain
since
9 am
mm
Dir
 
Spd
km/h
Gust
km/h
Spd
kts
Gust
kts
02/11:30pm 15.1 9.9 9.0 67 3.1 NW 26 32 14 17 1012.7 1012.6 0.0
02/11:00pm 15.4 9.4 8.6 64 3.5 NW 30 37 16 20 1012.3 1012.2 0.0
02/10:30pm 15.6 10.5 9.1 65 3.3 NNW 26 32 14 17 1012.2 1012.1 0.0
02/10:00pm 16.1 10.3 9.3 64 3.5 NNW 30 33 16 18 1011.9 1011.8 0.0
02/09:30pm 16.6 10.6 8.8 60 4.0 NNW 30 35 16 19 1011.7 1011.6 0.0
02/09:00pm 17.0 10.6 9.2 60 4.1 N 33 39 18 21 1011.0 1010.9 0.0
02/08:30pm 17.7 10.3 8.3 54 4.8 N 37 44 20 24 1010.3 1010.2 0.0
02/08:00pm 18.1 10.1 7.5 50 5.4 N 39 43 21 23 1010.2 1010.1 0.0
02/07:30pm 18.4 10.4 7.5 49 5.5 N 39 44 21 24 1010.3 1010.2 0.0
02/07:00pm 19.0 11.5 4.7 39 6.9 N 33 43 18 23 1009.8 1009.7 0.0
02/06:30pm 18.1 12.2 12.3 69 3.2 N 35 48 19 26 1009.9 1009.8 0.0
02/06:00pm 17.7 11.5 15.0 84 1.6 N 41 46 22 25 1010.0 1009.9 0.0
02/05:30pm 17.9 10.9 14.2 79 2.1 N 44 52 24 28 1010.0 1009.9 0.0
02/05:00pm 18.0 12.0 14.5 80 2.0 N 39 46 21 25 1010.7 1010.6 0.0
02/04:30pm 17.9 11.9 13.4 75 2.5 NNE 37 48 20 26 1010.8 1010.7 0.0
02/04:00pm 17.8 12.1 13.1 74 2.6 NNE 35 44 19 24 1011.4 1011.3 0.0
02/03:30pm 17.9 11.7 12.6 71 3.0 NNE 37 44 20 24 1011.9 1011.8 0.0
02/03:00pm 18.5 12.6 12.5 68 3.3 NNE 35 44 19 24 1012.4 1012.3 0.0
02/02:30pm 18.4 13.6 11.7 65 3.7 NNE 28 39 15 21 1013.2 1013.1 0.0
02/02:00pm 18.0 12.2 10.9 63 3.8 NNE 32 39 17 21 1013.8 1013.7 0.0
02/01:30pm 18.0 12.5 10.6 62 4.0 N 30 39 16 21 1014.4 1014.3 0.0
02/01:00pm 17.0 12.5 10.1 64 3.6 N 24 28 13 15 1015.2 1015.1 0.0
02/12:30pm 16.4 13.1 9.6 64 3.5 N 17 20 9 11 1016.4 1016.4 0.0
02/12:00pm 15.6 11.7 8.8 64 3.5 NNW 19 24 10 13 1017.1 1017.1 0.0
02/11:30am 15.0 10.8 8.3 64 3.4 N 20 24 11 13 1017.7 1017.7 0.0
02/11:00am 14.9 11.6 8.2 64 3.4 N 15 20 8 11 1018.0 1018.0 0.0
02/10:30am 14.0 11.6 7.1 63 3.4 NNW 9 11 5 6 1018.4 1018.4 0.0
02/10:00am 13.2 11.4 7.0 66 3.0 NNE 6 7 3 4 1018.5 1018.5 0.0
02/09:30am 13.1 11.3 7.1 67 2.9 N 6 7 3 4 1018.5 1018.5 0.0
02/09:00am 12.4 11.2 6.5 67 2.8 WSW 2 6 1 3 1018.6 1018.6 0.0
02/08:30am 11.9 9.7 6.4 69 2.6 W 7 9 4 5 1018.9 1018.9 0.0
02/08:00am 11.5 10.4 6.8 73 2.2 WNW 2 6 1 3 1018.5 1018.5 0.0
02/07:30am 10.8 9.2 6.2 73 2.1 NE 4 6 2 3 1018.3 1018.3 0.0
02/07:00am 10.8 9.6 6.6 75 2.0 NE 2 4 1 2 1018.3 1018.3 0.0
02/06:30am 10.8 9.6 6.4 74 2.1 N 2 4 1 2 1018.4 1018.4 0.0
02/06:00am 10.8 8.7 5.8 71 2.3 WSW 6 9 3 5 1018.0 1018.0 0.0
02/05:30am 10.6 8.4 6.2 74 2.1 W 7 11 4 6 1018.0 1018.0 0.0
02/05:00am 11.0 7.7 6.4 73 2.2 WSW 13 17 7 9 1018.1 1018.1 0.0
02/04:30am 11.3 7.4 5.4 67 2.7 SW 15 19 8 10 1017.9 1017.9 0.0
02/04:00am 11.3 7.1 5.6 68 2.6 SW 17 20 9 11 1017.9 1017.9 0.0
02/03:30am 11.4 7.2 5.9 69 2.6 SW 17 19 9 10 1017.7 1017.7 0.0
02/03:00am 11.4 8.1 6.3 71 2.4 SW 13 17 7 9 1017.3 1017.3 0.0
02/02:30am 11.0 8.3 7.5 79 1.7 W 11 13 6 7 1017.2 1017.2 0.0
02/02:00am 12.1 8.4 6.4 68 2.7 SW 15 19 8 10 1017.3 1017.3 0.0
02/01:30am 12.3 7.6 6.1 66 2.9 SW 20 24 11 13 1017.3 1017.3 0.0
02/01:00am 12.4 7.5 6.7 68 2.7 SW 22 28 12 15 1017.1 1017.1 0.0
02/12:30am 12.5 7.7 7.2 70 2.6 SW 22 28 12 15 1017.0 1017.0 0.0
02/12:00am 12.8 7.2 7.3 69 2.7 SW 26 32 14 17 1016.7 1016.7 0.0
 
Date/Time
EDT
Tmp

°C
App
Tmp
°C
Dew
Point
°C
Rel
Hum
%
Delta-T

°C
Wind Press
QNH
hPa
Press
MSL
hPa
Rain
since
9 am
mm
Dir
 
Spd
km/h
Gust
km/h
Spd
kts
Gust
kts
01/11:30pm 13.0 7.0 7.2 68 2.8 SW 28 35 15 19 1016.5 1016.5 0.0
01/11:00pm 13.4 6.8 7.6 68 2.8 SSW 32 37 17 20 1016.7 1016.7 0.0
01/10:30pm 13.6 7.1 8.0 69 2.8 SSW 32 35 17 19 1016.6 1016.6 0.0
01/10:00pm 13.7 8.2 9.0 73 2.4 SSW 28 37 15 20 1016.6 1016.6 0.0
01/09:30pm 13.9 8.1 9.3 74 2.3 SSW 30 35 16 19 1016.2 1016.2 0.0
01/09:00pm 13.9 7.5 9.3 74 2.3 SSW 33 39 18 21 1015.6 1015.6 0.0
01/08:30pm 14.1 7.9 9.5 74 2.4 SSW 32 37 17 20 1015.0 1014.9 0.0
01/08:00pm 14.5 7.8 9.5 72 2.6 SSW 35 41 19 22 1014.3 1014.2 0.0
01/07:30pm 14.5 7.7 9.3 71 2.7 SSW 35 44 19 24 1013.8 1013.7 0.0
01/07:00pm 14.9 7.1 9.9 72 2.6 SSW 41 46 22 25 1013.3 1013.2 0.0
01/06:30pm 15.4 9.2 9.5 68 3.1 S 32 39 17 21 1012.8 1012.7 0.0
01/06:00pm 15.9 8.0 9.3 65 3.4 SSW 41 46 22 25 1012.1 1012.0 0.0
01/05:30pm 16.0 7.6 9.7 66 3.3 SSW 44 56 24 30 1011.3 1011.2 0.0
01/05:00pm 16.4 8.2 10.3 67 3.2 SSW 44 54 24 29 1011.2 1011.1 0.0
01/04:30pm 16.3 8.9 9.7 65 3.4 SSW 39 46 21 25 1011.1 1011.0 0.0
01/04:00pm 17.7 9.3 9.1 57 4.5 SSW 43 57 23 31 1010.4 1010.3 0.0
01/03:30pm 17.4 10.0 9.8 61 4.0 SSW 39 44 21 24 1010.2 1010.1 0.0
01/03:00pm 17.1 10.5 10.0 63 3.8 SSW 35 43 19 23 1009.8 1009.7 0.0
01/02:30pm 16.4 8.4 8.9 61 3.9 SSW 41 48 22 26 1009.3 1009.2 0.0
01/02:00pm 17.9 12.6 9.8 59 4.3 SSW 28 37 15 20 1009.2 1009.1 0.0
01/01:30pm 18.5 11.0 7.9 50 5.4 SSW 37 43 20 23 1008.6 1008.5 0.0
01/01:00pm 17.6 10.2 8.5 55 4.7 SW 37 44 20 24 1008.3 1008.2 0.0
01/12:30pm 18.1 11.9 9.2 56 4.7 SW 32 43 17 23 1008.0 1007.9 0.0
01/12:00pm 17.9 11.1 9.3 57 4.5 SSW 35 48 19 26 1007.7 1007.6 0.0
01/11:30am 16.7 8.9 8.4 58 4.2 SW 39 50 21 27 1007.3 1007.2 0.0
01/11:00am 16.7 11.6 9.1 61 3.9 SW 26 35 14 19 1007.1 1007.0 0.0
01/10:30am 16.0 10.1 9.2 64 3.5 SW 30 39 16 21 1006.5 1006.4 0.0
01/10:00am 16.3 8.7 9.0 62 3.8 SW 39 48 21 26 1005.7 1005.6 0.0

Latest Capital City Observations: Canberra | Sydney | Melbourne | Brisbane | Adelaide | Perth | Hobart | Darwin

Other Formats:

Comma delimited format used in spreadsheet applications
http://www.bom.gov.au/fwo/IDT60901/IDT60901.95988.axf

JavaScript Object Notation format (JSON) in row-major order
http://www.bom.gov.au/fwo/IDT60901/IDT60901.95988.json